Terminal Aerodrome Forecast
Issued by NWS

Home | Current Version | Previous Version | Text Only | Print | Product List | Glossary On
Versions: 1 2 3 4 5 6 7 8 9 10 11 12 13 14 15 16
000
FTAK31 PAFA 161742
TAFAUN
TAF
PAUN 161742Z 1618/1718 VRB04KT P6SM BKN070
     FM170200 06005KT P6SM SCT050 OVC100
     FM171100 08005KT P6SM BKN050=

USA.gov is the U.S. government's official web portal to all federal, state and local government web resources and services.